Time;durP1;ratioP1;P1;durP2;ratioP2;P2;SDS_P1;SDS_P2;PMS_P1;PMS_P2;Temp;Humidity;BMP_temperature;BMP_pressure;BME280_temperature;BME280_humidity;BME280_pressure;Samples;Min_cycle;Max_cycle;Signal;HPM_P1;HPM_P2
2021/09/02 00:02:06;;;;;;;3.95;2.77;;;;;;;14.29;100.00;99872.05;1708927;82;21088;-53
2021/09/02 00:04:32;;;;;;;5.33;3.30;;;;;;;14.28;100.00;99869.49;1702217;83;20969;-54
2021/09/02 00:06:59;;;;;;;4.90;3.20;;;;;;;14.26;100.00;99867.42;1715786;82;21058;-56
2021/09/02 00:09:25;;;;;;;3.62;3.33;;;;;;;14.23;100.00;99864.48;1717733;82;20976;-53
2021/09/02 00:11:52;;;;;;;6.75;3.55;;;;;;;14.20;100.00;99865.91;1717415;82;21530;-56
2021/09/02 00:14:19;;;;;;;7.80;3.55;;;;;;;14.17;100.00;99856.50;1718728;82;21212;-55
2021/09/02 00:16:47;;;;;;;7.80;3.17;;;;;;;14.14;100.00;99865.71;1718278;82;21521;-57
2021/09/02 00:19:14;;;;;;;4.17;3.25;;;;;;;14.07;100.00;99857.34;1719043;82;20964;-55
2021/09/02 00:21:40;;;;;;;4.83;3.30;;;;;;;14.04;100.00;99857.48;1718662;82;21007;-57
2021/09/02 00:24:07;;;;;;;6.58;3.30;;;;;;;14.00;100.00;99854.59;1718255;82;21573;-55
2021/09/02 00:28:42;;;;;;;3.75;3.52;;;;;;;14.02;100.00;99858.00;1796759;79;22663;-53
2021/09/02 00:31:10;;;;;;;4.40;3.45;;;;;;;13.95;100.00;99852.64;1757422;81;20972;-54
2021/09/02 00:33:37;;;;;;;4.50;3.50;;;;;;;13.91;100.00;99854.55;1757367;81;21892;-56
2021/09/02 00:36:05;;;;;;;3.60;3.30;;;;;;;13.86;100.00;99851.73;1757337;80;21501;-55
2021/09/02 00:38:33;;;;;;;7.28;3.50;;;;;;;13.83;100.00;99857.08;1757368;80;20959;-55
2021/09/02 00:41:00;;;;;;;9.70;3.50;;;;;;;13.79;100.00;99857.20;1757345;80;20991;-53
2021/09/02 00:43:27;;;;;;;5.62;3.17;;;;;;;13.79;100.00;99857.64;1757685;81;20972;-54
2021/09/02 00:45:54;;;;;;;5.67;3.55;;;;;;;13.76;100.00;99862.98;1757295;80;21106;-54
2021/09/02 00:48:21;;;;;;;7.55;3.62;;;;;;;13.74;100.00;99859.13;1757170;80;20932;-55
2021/09/02 00:50:48;;;;;;;5.20;3.45;;;;;;;13.72;100.00;99850.55;1757378;81;20960;-55
2021/09/02 00:53:15;;;;;;;6.85;3.52;;;;;;;13.69;100.00;99851.97;1757424;81;21505;-54
2021/09/02 00:55:41;;;;;;;5.90;3.30;;;;;;;13.70;100.00;99846.33;1757437;80;21007;-54
2021/09/02 00:58:08;;;;;;;7.47;3.02;;;;;;;13.69;100.00;99853.74;1757366;80;21156;-52
2021/09/02 01:00:35;;;;;;;3.27;3.08;;;;;;;13.67;100.00;99858.16;1757332;80;21354;-53
2021/09/02 01:03:01;;;;;;;5.70;3.27;;;;;;;13.62;100.00;99851.84;1757257;81;20964;-55
2021/09/02 01:05:27;;;;;;;22.32;4.67;;;;;;;13.60;100.00;99851.06;1757532;80;20983;-52
2021/09/02 01:07:54;;;;;;;29.50;5.08;;;;;;;13.58;100.00;99845.91;1757186;81;20940;-54
2021/09/02 01:10:21;;;;;;;23.47;5.65;;;;;;;13.58;100.00;99847.68;1783495;79;21524;-54
2021/09/02 01:12:49;;;;;;;17.25;4.80;;;;;;;13.55;100.00;99844.73;1791684;80;21464;-56
2021/09/02 01:15:26;;;;;;;14.78;4.75;;;;;;;13.54;100.00;99843.52;1791628;80;20994;-56
2021/09/02 01:17:56;;;;;;;28.27;4.17;;;;;;;13.50;100.00;99841.48;1791855;80;21388;-53
2021/09/02 01:20:25;;;;;;;40.73;5.37;;;;;;;13.46;100.00;99840.75;1791916;80;20915;-53
2021/09/02 01:22:54;;;;;;;34.48;5.03;;;;;;;13.45;100.00;99835.63;1762784;80;21073;-55
2021/09/02 01:25:24;;;;;;;21.80;4.70;;;;;;;13.43;100.00;99834.37;1791804;80;21023;-54
2021/09/02 01:27:57;;;;;;;11.03;3.85;;;;;;;13.40;100.00;99831.04;1788485;80;21408;-53
2021/09/02 01:30:23;;;;;;;4.42;3.85;;;;;;;13.35;100.00;99828.62;1786201;80;20970;-55
2021/09/02 01:32:50;;;;;;;9.48;4.25;;;;;;;13.34;100.00;99832.13;1786278;80;20935;-54
2021/09/02 01:35:17;;;;;;;7.28;3.52;;;;;;;13.35;100.00;99832.52;1757497;80;21038;-55
2021/09/02 01:37:50;;;;;;;18.00;3.83;;;;;;;13.34;100.00;99826.45;1786223;80;20963;-52
2021/09/02 01:40:21;;;;;;;5.85;3.52;;;;;;;13.34;100.00;99829.52;1782824;80;20884;-56
2021/09/02 01:42:48;;;;;;;6.25;3.40;;;;;;;13.35;100.00;99835.11;1785653;80;20931;-56
2021/09/02 01:45:15;;;;;;;6.72;3.45;;;;;;;13.35;100.00;99841.14;1785740;80;20975;-56
2021/09/02 01:47:42;;;;;;;5.00;2.90;;;;;;;13.35;100.00;99841.61;1782815;80;21298;-55
2021/09/02 01:50:18;;;;;;;6.03;3.80;;;;;;;13.36;100.00;99844.60;1785469;79;20986;-56
2021/09/02 01:52:44;;;;;;;11.30;4.20;;;;;;;13.37;100.00;99834.59;1785866;80;20958;-54
2021/09/02 01:55:11;;;;;;;15.68;4.03;;;;;;;13.42;100.00;99834.42;1785673;80;20967;-52
2021/09/02 01:57:38;;;;;;;73.02;8.58;;;;;;;13.46;100.00;99829.52;1782839;80;20936;-56
2021/09/02 02:00:07;;;;;;;97.82;10.90;;;;;;;13.49;100.00;99825.02;1785597;80;21120;-52
2021/09/02 02:02:33;;;;;;;102.32;9.73;;;;;;;13.55;100.00;99823.11;1785559;80;20966;-55
2021/09/02 02:05:00;;;;;;;86.05;10.68;;;;;;;13.60;100.00;99825.05;1782978;80;20931;-53
2021/09/02 02:07:26;;;;;;;64.70;7.58;;;;;;;13.68;100.00;99820.38;1785479;80;20927;-55
2021/09/02 02:09:53;;;;;;;58.48;7.37;;;;;;;13.73;100.00;99822.80;1785587;80;20978;-52
2021/09/02 02:12:20;;;;;;;42.35;7.03;;;;;;;13.77;100.00;99818.71;1785462;80;21230;-53
2021/09/02 02:14:46;;;;;;;42.70;6.95;;;;;;;13.84;100.00;99821.05;1785642;80;20920;-55
2021/09/02 02:17:13;;;;;;;23.02;5.65;;;;;;;13.88;100.00;99826.50;1785593;80;20994;-55
2021/09/02 02:19:39;;;;;;;16.52;5.10;;;;;;;13.90;100.00;99815.14;1785726;80;21556;-54
2021/09/02 02:22:06;;;;;;;10.60;4.62;;;;;;;13.90;100.00;99819.04;1785596;80;21002;-55
2021/09/02 02:24:32;;;;;;;6.47;3.80;;;;;;;13.93;100.00;99816.74;1785810;80;21130;-53
2021/09/02 02:26:59;;;;;;;17.60;4.40;;;;;;;13.94;100.00;99814.53;1785486;79;20931;-53
2021/09/02 02:29:25;;;;;;;9.93;3.95;;;;;;;13.97;100.00;99810.49;1785599;80;21513;-54
2021/09/02 02:31:52;;;;;;;9.88;4.53;;;;;;;13.99;100.00;99811.27;1785854;80;21547;-54
2021/09/02 02:34:18;;;;;;;8.45;4.45;;;;;;;14.03;100.00;99818.50;1785819;80;21153;-54
2021/09/02 02:36:45;;;;;;;9.30;4.20;;;;;;;14.07;100.00;99817.02;1785621;80;21195;-55
2021/09/02 02:39:12;;;;;;;22.95;5.37;;;;;;;14.10;100.00;99818.62;1785476;80;22266;-55
2021/09/02 02:41:38;;;;;;;36.03;5.35;;;;;;;14.15;100.00;99814.08;1785908;80;21496;-52
2021/09/02 02:44:04;;;;;;;14.07;5.20;;;;;;;14.20;100.00;99813.86;1785375;80;20963;-55
2021/09/02 02:46:31;;;;;;;23.12;5.53;;;;;;;14.25;100.00;99814.97;1785688;80;21543;-52
2021/09/02 02:48:59;;;;;;;20.15;4.87;;;;;;;14.28;100.00;99813.09;1785628;79;21489;-54
2021/09/02 02:51:26;;;;;;;22.00;5.30;;;;;;;14.32;100.00;99810.73;1785460;79;20923;-55
2021/09/02 02:53:53;;;;;;;18.15;4.87;;;;;;;14.37;100.00;99809.20;1785536;80;21489;-53
2021/09/02 02:56:20;;;;;;;4.37;3.98;;;;;;;14.41;100.00;99811.23;1785735;80;20915;-55
2021/09/02 02:58:48;;;;;;;6.28;4.10;;;;;;;14.43;100.00;99805.48;1785933;80;20996;-52
2021/09/02 03:01:15;;;;;;;6.80;3.90;;;;;;;14.46;100.00;99807.52;1785656;80;21108;-53
2021/09/02 03:03:42;;;;;;;5.42;3.67;;;;;;;14.50;100.00;99809.50;1785479;80;21018;-55
2021/09/02 03:06:10;;;;;;;4.83;3.80;;;;;;;14.52;100.00;99808.97;1785400;80;20975;-54
2021/09/02 03:08:37;;;;;;;12.65;3.80;;;;;;;14.55;100.00;99811.47;1785421;80;20962;-53
2021/09/02 03:11:04;;;;;;;16.12;4.67;;;;;;;14.56;100.00;99810.55;1785551;80;20962;-56
2021/09/02 03:13:32;;;;;;;11.35;4.50;;;;;;;14.58;100.00;99810.46;1785450;80;20923;-53
2021/09/02 03:16:00;;;;;;;15.05;4.17;;;;;;;14.59;100.00;99812.15;1785629;80;20844;-55
2021/09/02 03:18:27;;;;;;;21.25;5.75;;;;;;;14.60;100.00;99812.53;1785549;80;20994;-54
2021/09/02 03:20:55;;;;;;;39.60;6.75;;;;;;;14.61;100.00;99812.92;1785706;80;21583;-57
2021/09/02 03:23:21;;;;;;;10.65;3.87;;;;;;;14.62;100.00;99811.56;1786017;80;21637;-53
2021/09/02 03:25:48;;;;;;;9.38;3.92;;;;;;;14.66;100.00;99814.41;1785958;80;21013;-55
2021/09/02 03:28:14;;;;;;;3.75;3.45;;;;;;;14.68;100.00;99809.14;1783065;80;20963;-54
2021/09/02 03:30:41;;;;;;;4.87;4.37;;;;;;;14.71;100.00;99810.78;1779762;80;21071;-56
2021/09/02 03:33:08;;;;;;;7.08;3.80;;;;;;;14.73;100.00;99815.45;1779732;80;21492;-54
2021/09/02 03:35:34;;;;;;;5.12;3.90;;;;;;;14.74;100.00;99809.33;1749539;80;21532;-56
2021/09/02 03:38:01;;;;;;;6.33;3.50;;;;;;;14.76;100.00;99812.70;1779884;80;21876;-54
2021/09/02 03:40:28;;;;;;;13.28;4.20;;;;;;;14.79;100.00;99817.80;1779741;80;20955;-54
2021/09/02 03:42:54;;;;;;;13.00;4.08;;;;;;;14.81;100.00;99810.76;1779832;80;21488;-55
2021/09/02 03:45:21;;;;;;;7.72;3.90;;;;;;;14.82;100.00;99812.45;1779637;80;21594;-56
2021/09/02 03:47:48;;;;;;;3.60;3.30;;;;;;;14.84;100.00;99809.75;1779850;80;20924;-56
2021/09/02 03:50:18;;;;;;;7.00;3.30;;;;;;;14.85;100.00;99812.74;1779646;80;21129;-55
2021/09/02 03:52:45;;;;;;;3.72;3.37;;;;;;;14.86;100.00;99812.69;1779583;80;20880;-53
2021/09/02 03:55:12;;;;;;;6.37;4.33;;;;;;;14.88;100.00;99812.59;1779632;80;21449;-54
2021/09/02 03:57:40;;;;;;;13.80;4.42;;;;;;;14.89;100.00;99817.75;1749317;80;21121;-55
2021/09/02 04:00:09;;;;;;;6.40;3.95;;;;;;;14.90;100.00;99812.06;1779855;80;20983;-53
2021/09/02 04:02:36;;;;;;;6.10;3.60;;;;;;;14.90;100.00;99810.77;1779998;80;21111;-54
2021/09/02 04:05:04;;;;;;;7.70;3.77;;;;;;;14.91;100.00;99808.58;1779587;80;21442;-54
2021/09/02 04:07:31;;;;;;;8.10;3.80;;;;;;;14.92;100.00;99811.56;1749678;80;20975;-55
2021/09/02 04:09:57;;;;;;;7.10;4.35;;;;;;;14.90;100.00;99809.02;1779649;79;20936;-55
2021/09/02 04:12:24;;;;;;;10.20;4.62;;;;;;;14.90;100.00;99810.77;1779711;80;20951;-55
2021/09/02 04:14:50;;;;;;;7.85;4.53;;;;;;;14.88;100.00;99812.59;1779701;80;21125;-53
2021/09/02 04:17:16;;;;;;;6.25;4.53;;;;;;;14.87;100.00;99809.16;1779730;80;20979;-56
2021/09/02 04:19:44;;;;;;;5.67;4.65;;;;;;;14.87;100.00;99809.16;1779924;80;20924;-55
2021/09/02 04:22:11;;;;;;;8.78;4.55;;;;;;;14.88;100.00;99805.64;1779619;80;20928;-55
2021/09/02 04:24:37;;;;;;;5.78;4.20;;;;;;;14.89;100.00;99803.86;1749379;80;20900;-54
2021/09/02 04:27:05;;;;;;;5.60;5.08;;;;;;;14.89;100.00;99802.12;1779749;80;21828;-54
2021/09/02 04:29:31;;;;;;;7.08;4.65;;;;;;;14.91;100.00;99807.27;1784217;80;20963;-53
2021/09/02 04:31:58;;;;;;;8.78;5.37;;;;;;;14.93;100.00;99806.73;1785551;80;21055;-52
2021/09/02 04:34:24;;;;;;;6.05;5.40;;;;;;;14.92;100.00;99802.45;1756867;80;20916;-51
2021/09/02 04:36:51;;;;;;;11.05;5.42;;;;;;;14.89;100.00;99802.12;1785430;80;21528;-52
2021/09/02 04:39:17;;;;;;;9.00;6.03;;;;;;;14.88;100.00;99800.88;1785456;80;21034;-54
2021/09/02 04:41:45;;;;;;;6.45;5.15;;;;;;;14.85;100.00;99806.23;1785455;80;20982;-55
2021/09/02 04:44:11;;;;;;;5.55;4.95;;;;;;;14.83;100.00;99806.77;1782814;80;20907;-53
2021/09/02 04:46:38;;;;;;;7.17;6.47;;;;;;;14.87;100.00;99810.91;1785485;80;20998;-55
2021/09/02 04:49:04;;;;;;;6.78;6.17;;;;;;;14.89;100.00;99807.33;1782585;80;22276;-55
2021/09/02 04:51:30;;;;;;;9.68;6.83;;;;;;;14.93;100.00;99811.95;1785825;80;21697;-53
2021/09/02 04:53:57;;;;;;;9.50;6.80;;;;;;;14.92;100.00;99816.78;1785373;80;20990;-52
2021/09/02 04:56:23;;;;;;;6.97;6.03;;;;;;;14.90;100.00;99816.83;1785738;80;20951;-55
2021/09/02 04:58:51;;;;;;;14.60;6.65;;;;;;;14.91;100.00;99813.31;1785418;80;20987;-54
2021/09/02 05:01:18;;;;;;;6.10;5.60;;;;;;;14.96;100.00;99809.64;1785636;79;20970;-55
2021/09/02 05:03:44;;;;;;;7.50;5.62;;;;;;;15.01;100.00;99814.17;1785465;80;21153;-54
2021/09/02 05:06:11;;;;;;;6.53;5.70;;;;;;;15.04;100.00;99810.97;1785548;80;21515;-53
2021/09/02 05:08:39;;;;;;;9.00;5.83;;;;;;;15.11;100.00;99807.62;1782571;80;20892;-54
2021/09/02 05:11:07;;;;;;;9.10;6.50;;;;;;;15.16;100.00;99804.81;1785585;80;20931;-53
2021/09/02 05:13:34;;;;;;;11.12;7.40;;;;;;;15.20;100.00;99807.64;1785564;80;21004;-54
2021/09/02 05:16:01;;;;;;;7.15;6.60;;;;;;;15.22;100.00;99805.33;1785715;80;21075;-53
2021/09/02 05:18:29;;;;;;;8.18;6.97;;;;;;;15.23;100.00;99812.23;1785631;79;20987;-56
2021/09/02 05:20:57;;;;;;;10.88;7.97;;;;;;;15.22;100.00;99807.94;1785777;80;21451;-53
2021/09/02 05:23:23;;;;;;;9.60;7.42;;;;;;;15.24;100.00;99811.79;1786136;79;21505;-55
2021/09/02 05:25:50;;;;;;;10.25;8.20;;;;;;;15.22;100.00;99813.62;1785673;80;20994;-56
2021/09/02 05:28:17;;;;;;;11.90;10.90;;;;;;;15.20;100.00;99809.78;1785527;80;21043;-54
2021/09/02 05:30:44;;;;;;;13.98;11.28;;;;;;;15.15;99.96;99810.91;1785565;80;21528;-54
2021/09/02 05:33:10;;;;;;;12.45;10.78;;;;;;;15.10;100.00;99816.36;1785669;80;20931;-55
2021/09/02 05:35:38;;;;;;;22.35;15.55;;;;;;;15.06;100.00;99819.56;1785754;80;20990;-56
2021/09/02 05:38:09;;;;;;;15.53;13.93;;;;;;;15.02;99.93;99825.84;1785794;80;20970;-56
2021/09/02 05:40:35;;;;;;;15.58;12.43;;;;;;;14.98;100.00;99823.44;1758188;80;21126;-54
2021/09/02 05:43:01;;;;;;;12.90;11.48;;;;;;;14.92;100.00;99824.12;1785678;80;20998;-56
2021/09/02 05:45:28;;;;;;;13.68;11.85;;;;;;;14.90;100.00;99825.95;1785715;80;21006;-53
2021/09/02 05:47:55;;;;;;;13.10;10.28;;;;;;;14.89;100.00;99822.96;1785646;80;21464;-55
2021/09/02 05:50:23;;;;;;;11.73;9.23;;;;;;;14.85;100.00;99829.23;1785696;80;21719;-55
2021/09/02 05:52:49;;;;;;;11.57;8.88;;;;;;;14.79;100.00;99833.44;1785645;80;21844;-55
2021/09/02 05:55:16;;;;;;;11.48;10.35;;;;;;;14.75;100.00;99834.02;1785812;80;20975;-55
2021/09/02 05:57:42;;;;;;;15.53;12.05;;;;;;;14.76;100.00;99835.71;1785624;80;21045;-55
2021/09/02 06:00:11;;;;;;;13.40;12.03;;;;;;;14.73;100.00;99843.67;1786149;80;21006;-54
2021/09/02 06:02:40;;;;;;;17.95;12.45;;;;;;;14.69;100.00;99836.02;1785741;79;20982;-55
2021/09/02 06:05:08;;;;;;;16.05;12.13;;;;;;;14.65;100.00;99840.52;1785925;80;21731;-56
2021/09/02 06:07:34;;;;;;;12.82;11.53;;;;;;;14.62;100.00;99840.66;1757466;80;20990;-55
2021/09/02 06:10:00;;;;;;;13.20;10.48;;;;;;;14.62;100.00;99836.75;1785692;80;20983;-54
2021/09/02 06:12:29;;;;;;;13.18;11.88;;;;;;;14.60;100.00;99838.14;1785666;80;20951;-54
2021/09/02 06:14:55;;;;;;;11.10;9.78;;;;;;;14.60;100.00;99839.44;1786158;80;20971;-52
2021/09/02 06:17:21;;;;;;;10.08;9.08;;;;;;;14.56;100.00;99839.64;1785785;80;21105;-54
2021/09/02 06:19:49;;;;;;;12.30;9.13;;;;;;;14.59;100.00;99846.86;1785709;80;21500;-55
2021/09/02 06:22:15;;;;;;;15.65;8.73;;;;;;;14.59;100.00;99842.95;1785613;80;20947;-56
2021/09/02 06:24:41;;;;;;;11.45;8.58;;;;;;;14.61;100.00;99843.73;1785739;80;20998;-55
2021/09/02 06:27:08;;;;;;;7.90;7.20;;;;;;;14.64;100.00;99850.55;1785752;80;20939;-55
2021/09/02 06:29:35;;;;;;;8.15;7.53;;;;;;;14.66;100.00;99847.44;1782696;80;21061;-54
2021/09/02 06:32:02;;;;;;;7.95;6.95;;;;;;;14.69;100.00;99851.65;1779888;80;20940;-54
2021/09/02 06:34:28;;;;;;;8.13;7.42;;;;;;;14.72;100.00;99855.45;1779972;80;20956;-55
2021/09/02 06:36:55;;;;;;;7.80;6.97;;;;;;;14.73;100.00;99850.63;1780009;80;20979;-57
2021/09/02 06:39:22;;;;;;;10.40;6.30;;;;;;;14.75;100.00;99854.86;1749524;80;20948;-58
2021/09/02 06:41:48;;;;;;;6.80;6.20;;;;;;;14.78;100.00;99853.89;1779893;80;21233;-54
2021/09/02 06:44:16;;;;;;;6.62;6.20;;;;;;;14.82;100.00;99858.04;1779866;80;20970;-54
2021/09/02 06:46:43;;;;;;;7.03;5.53;;;;;;;14.82;100.00;99857.17;1749281;80;21501;-55
2021/09/02 06:49:10;;;;;;;5.67;5.12;;;;;;;14.84;100.00;99860.11;1749366;80;21473;-55
2021/09/02 06:51:39;;;;;;;6.15;4.95;;;;;;;14.87;100.00;99858.67;1779795;80;20967;-56
2021/09/02 06:54:07;;;;;;;5.80;5.15;;;;;;;14.92;100.00;99858.47;1779882;80;21102;-55
2021/09/02 06:56:35;;;;;;;4.87;4.45;;;;;;;15.00;100.00;99853.73;1779837;80;20872;-53
2021/09/02 06:59:01;;;;;;;4.35;4.05;;;;;;;15.08;100.00;99851.61;1779909;80;20919;-54
2021/09/02 07:01:27;;;;;;;4.17;3.87;;;;;;;15.15;99.96;99853.47;1779835;80;21003;-55
2021/09/02 07:03:54;;;;;;;5.37;4.70;;;;;;;15.25;99.73;99855.19;1779906;80;21010;-53
2021/09/02 07:06:21;;;;;;;4.55;4.15;;;;;;;15.37;98.12;99855.06;1749281;80;21031;-53
2021/09/02 07:08:47;;;;;;;4.60;3.60;;;;;;;15.42;96.72;99860.89;1775224;79;21493;-55
2021/09/02 07:11:14;;;;;;;4.78;3.65;;;;;;;15.49;97.01;99860.98;1779671;80;20979;-56
2021/09/02 07:13:42;;;;;;;3.02;2.83;;;;;;;15.55;96.54;99869.45;1775333;80;20967;-54
2021/09/02 07:16:08;;;;;;;2.77;2.67;;;;;;;15.52;95.81;99860.82;1779670;80;21501;-56
2021/09/02 07:18:34;;;;;;;3.02;2.83;;;;;;;15.45;95.70;99865.95;1779891;80;21913;-53
2021/09/02 07:21:01;;;;;;;4.08;2.60;;;;;;;15.37;95.14;99872.02;1779677;80;21493;-57
2021/09/02 07:23:27;;;;;;;4.28;2.20;;;;;;;15.29;95.70;99865.02;1749398;80;21531;-57
2021/09/02 07:25:54;;;;;;;3.25;3.05;;;;;;;15.23;95.40;99866.98;1779771;80;20966;-54
2021/09/02 07:28:20;;;;;;;3.15;2.83;;;;;;;15.17;95.31;99860.76;1779751;80;20924;-54
2021/09/02 07:30:47;;;;;;;3.92;2.55;;;;;;;15.13;95.20;99863.57;1779622;79;21049;-54
2021/09/02 07:33:14;;;;;;;3.92;2.52;;;;;;;15.07;95.47;99855.61;1779710;79;20932;-56
2021/09/02 07:35:40;;;;;;;2.45;2.33;;;;;;;15.05;95.66;99862.17;1779639;79;20952;-54
2021/09/02 07:38:07;;;;;;;3.67;2.75;;;;;;;15.03;95.82;99855.34;1779768;79;20889;-54
2021/09/02 07:40:34;;;;;;;2.40;2.30;;;;;;;15.04;95.81;99860.48;1779690;80;20982;-56
2021/09/02 07:43:00;;;;;;;2.83;2.50;;;;;;;15.05;95.95;99858.27;1779666;80;21006;-55
2021/09/02 07:45:27;;;;;;;7.20;3.00;;;;;;;15.05;95.14;99854.84;1749109;80;21006;-56
2021/09/02 07:47:53;;;;;;;3.92;2.60;;;;;;;15.06;95.13;99861.73;1779767;80;21042;-56
2021/09/02 07:50:20;;;;;;;3.42;2.30;;;;;;;15.06;95.12;99856.05;1779698;80;20971;-55
2021/09/02 07:52:46;;;;;;;3.95;2.33;;;;;;;15.06;94.23;99860.43;1779796;80;20880;-57
2021/09/02 07:55:13;;;;;;;4.90;2.40;;;;;;;15.06;93.30;99861.27;1779662;80;21113;-56
2021/09/02 07:57:47;;;;;;;6.85;2.30;;;;;;;15.08;93.00;99860.73;1779728;80;21552;-56
2021/09/02 08:00:12;;;;;;;3.20;2.30;;;;;;;15.13;93.55;99855.75;1779647;80;20986;-55
2021/09/02 08:02:39;;;;;;;2.15;2.05;;;;;;;15.15;93.40;99856.08;1779801;80;20967;-56
2021/09/02 08:05:07;;;;;;;2.50;2.30;;;;;;;15.19;94.14;99856.79;1779799;80;20884;-57
2021/09/02 08:07:49;;;;;;;2.70;1.90;;;;;;;15.25;94.56;99854.33;1780067;80;21078;-55
2021/09/02 08:10:19;;;;;;;2.05;1.85;;;;;;;15.26;94.89;99857.32;1779590;80;20888;-56
2021/09/02 08:12:47;;;;;;;1.98;1.65;;;;;;;15.27;95.29;99854.66;1779777;80;20947;-54
2021/09/02 08:15:16;;;;;;;2.45;1.90;;;;;;;15.30;95.33;99857.11;1779642;80;21512;-56
2021/09/02 08:17:43;;;;;;;1.65;1.55;;;;;;;15.31;94.94;99854.89;1779983;80;20995;-56
2021/09/02 08:20:10;;;;;;;1.60;1.50;;;;;;;15.34;95.14;99857.34;1779654;80;21702;-57
2021/09/02 08:22:36;;;;;;;3.80;1.82;;;;;;;15.43;94.64;99856.54;1779792;80;20951;-53
2021/09/02 08:25:04;;;;;;;5.33;1.90;;;;;;;15.48;94.03;99859.28;1749183;80;20928;-54
2021/09/02 08:27:31;;;;;;;3.00;1.65;;;;;;;15.48;92.86;99851.47;1779604;80;21018;-56
2021/09/02 08:29:57;;;;;;;3.08;1.67;;;;;;;15.47;92.97;99855.47;1781649;80;20927;-55
2021/09/02 08:32:23;;;;;;;2.25;1.47;;;;;;;15.47;92.13;99850.25;1785492;79;21048;-56
2021/09/02 08:34:50;;;;;;;3.95;1.30;;;;;;;15.47;91.09;99854.99;1785370;80;20958;-54
2021/09/02 08:37:16;;;;;;;1.45;1.45;;;;;;;15.53;91.53;99861.69;1785569;79;20972;-55
2021/09/02 08:39:43;;;;;;;11.80;1.92;;;;;;;15.64;90.86;99859.86;1785561;80;20950;-57
2021/09/02 08:42:09;;;;;;;3.40;2.15;;;;;;;15.77;90.99;99850.97;1785608;80;21716;-55
2021/09/02 08:44:37;;;;;;;4.67;1.82;;;;;;;15.92;88.27;99851.55;1757255;80;21055;-56
2021/09/02 08:47:03;;;;;;;2.47;1.95;;;;;;;16.04;87.49;99850.52;1727053;80;20943;-53
2021/09/02 08:49:30;;;;;;;3.08;1.70;;;;;;;16.14;87.50;99846.98;1785560;80;20884;-53
2021/09/02 08:51:56;;;;;;;6.62;2.00;;;;;;;16.32;87.26;99842.13;1785712;80;20928;-54
2021/09/02 08:54:22;;;;;;;1.80;1.70;;;;;;;16.54;84.51;99843.58;1785657;79;20931;-53
2021/09/02 08:56:49;;;;;;;3.90;2.17;;;;;;;16.75;82.40;99848.59;1785717;80;21085;-53
2021/09/02 08:59:17;;;;;;;6.22;2.35;;;;;;;16.90;76.77;99845.16;1785660;80;21513;-57
2021/09/02 09:01:49;;;;;;;2.30;2.17;;;;;;;16.98;75.53;99838.66;1785730;80;20923;-54
2021/09/02 09:04:16;;;;;;;4.92;2.15;;;;;;;17.05;76.50;99850.03;1785728;80;20983;-58
2021/09/02 09:06:42;;;;;;;3.08;2.83;;;;;;;17.20;76.84;99847.03;1785930;80;21469;-56
2021/09/02 09:09:16;;;;;;;5.80;2.65;;;;;;;17.35;72.81;99847.11;1785499;80;21218;-56
2021/09/02 09:11:49;;;;;;;4.75;3.25;;;;;;;17.42;72.17;99845.83;1785653;80;20947;-56
2021/09/02 09:14:22;;;;;;;8.95;2.90;;;;;;;17.67;70.65;99837.88;1785623;79;20994;-56
2021/09/02 09:16:52;;;;;;;3.37;3.08;;;;;;;17.86;67.51;99831.58;1786102;80;20955;-55
2021/09/02 09:19:43;;;;;;;5.10;2.62;;;;;;;17.98;69.84;99838.69;1785746;80;21021;-57
2021/09/02 09:22:12;;;;;;;4.78;2.80;;;;;;;18.20;67.50;99842.23;1785890;80;21231;-55
2021/09/02 09:24:59;;;;;;;7.50;3.42;;;;;;;18.65;67.65;99831.64;1785496;80;20927;-53
2021/09/02 09:27:39;;;;;;;4.30;3.00;;;;;;;19.11;63.06;99829.70;1785562;80;21615;-56
2021/09/02 09:30:30;;;;;;;8.13;3.55;;;;;;;19.33;64.44;99827.01;1758306;80;21031;-54
2021/09/02 09:33:03;;;;;;;5.75;3.70;;;;;;;19.59;61.82;99829.70;1779920;80;20915;-55
2021/09/02 09:35:33;;;;;;;4.05;3.65;;;;;;;19.66;59.93;99825.23;1779713;80;21090;-54
2021/09/02 09:38:07;;;;;;;9.43;3.72;;;;;;;19.61;59.88;99823.39;1780056;80;20932;-55
2021/09/02 09:40:41;;;;;;;8.05;4.37;;;;;;;19.60;59.10;99821.70;1779914;80;20994;-54
2021/09/02 09:43:18;;;;;;;4.25;3.75;;;;;;;19.64;61.43;99831.55;1780047;80;21010;-53
2021/09/02 09:45:54;;;;;;;9.53;3.95;;;;;;;19.67;59.58;99821.66;1779914;80;20943;-56
2021/09/02 09:48:37;;;;;;;5.97;3.92;;;;;;;19.57;57.26;99830.25;1780173;80;20955;-57
2021/09/02 09:51:18;;;;;;;7.83;3.95;;;;;;;19.12;57.83;99839.25;1779754;80;20963;-53
2021/09/02 09:53:49;;;;;;;10.85;3.80;;;;;;;18.89;58.14;99831.49;1779870;80;20915;-53
2021/09/02 09:56:19;;;;;;;10.20;3.90;;;;;;;19.15;59.75;99825.94;1779795;80;20940;-58
2021/09/02 09:58:47;;;;;;;8.35;4.00;;;;;;;19.79;60.62;99837.55;1780152;80;21442;-57
2021/09/02 10:01:13;;;;;;;5.20;4.20;;;;;;;20.17;54.78;99830.19;1779921;80;21105;-56
2021/09/02 10:03:41;;;;;;;5.97;4.17;;;;;;;20.30;58.06;99830.18;1779816;79;20999;-57
2021/09/02 10:06:10;;;;;;;8.98;3.87;;;;;;;20.22;55.86;99842.56;1779815;80;20852;-55
2021/09/02 10:08:42;;;;;;;8.95;3.87;;;;;;;19.66;56.60;99838.36;1780028;79;22196;-56
2021/09/02 10:11:11;;;;;;;8.18;3.95;;;;;;;19.03;57.82;99839.82;1749769;80;20884;-54
2021/09/02 10:13:38;;;;;;;6.22;4.40;;;;;;;18.43;60.32;99841.76;1779825;80;21108;-56
2021/09/02 10:16:05;;;;;;;11.95;4.10;;;;;;;18.03;62.12;99861.54;1780004;80;20979;-56
2021/09/02 10:18:34;;;;;;;8.90;4.55;;;;;;;17.81;63.72;99852.33;1779971;80;20955;-56
2021/09/02 10:21:07;;;;;;;5.50;4.08;;;;;;;17.68;63.63;99857.88;1750198;80;21086;-55
2021/09/02 10:23:33;;;;;;;7.60;4.37;;;;;;;17.64;64.89;99858.51;1779788;80;21572;-59
2021/09/02 10:26:00;;;;;;;5.12;4.08;;;;;;;17.92;65.43;99851.67;1779665;80;21105;-55
2021/09/02 10:28:35;;;;;;;11.10;4.40;;;;;;;18.37;65.14;99837.27;1724816;80;20962;-55
2021/09/02 10:31:06;;;;;;;;;;;;;;;18.99;63.57;99835.72;1785469;80;20919;-56
2021/09/02 10:33:46;;;;;;;7.50;3.87;;;;;;;19.46;58.58;99830.98;1785778;80;20466;-55
2021/09/02 11:06:08;;;;;;;9.15;3.35;;;;;;;19.09;54.94;99880.93;1771863;80;22448;-54
2021/09/02 11:08:37;;;;;;;5.12;3.15;;;;;;;18.87;55.40;99880.56;1740033;81;20949;-56
2021/09/02 11:11:14;;;;;;;8.88;3.10;;;;;;;18.74;57.01;99873.93;1730696;81;21705;-55
2021/09/02 11:13:42;;;;;;;7.22;2.85;;;;;;;18.76;57.35;99882.54;1756184;80;20885;-57
2021/09/02 11:16:16;;;;;;;4.55;2.83;;;;;;;18.71;56.94;99881.98;1749462;80;21421;-55
2021/09/02 14:34:57;;;;;;;6.30;2.98;;;;;;;16.49;46.15;100061.10;1869629;76;22655;-53
2021/09/02 14:37:24;;;;;;;9.58;2.10;;;;;;;16.83;44.77;100055.51;1826637;77;20967;-54
2021/09/02 14:39:51;;;;;;;11.08;3.05;;;;;;;16.97;44.69;100061.78;1826643;78;21060;-54
2021/09/02 14:42:17;;;;;;;12.33;3.08;;;;;;;16.90;45.23;100056.02;1786052;78;21492;-54
2021/09/02 14:44:43;;;;;;;10.85;2.50;;;;;;;16.64;45.21;100060.80;1827019;78;21394;-54
2021/09/02 14:47:10;;;;;;;13.15;2.45;;;;;;;16.05;46.99;100082.78;1826484;78;20936;-54
2021/09/02 14:49:37;;;;;;;7.50;3.02;;;;;;;15.49;49.08;100074.84;1826794;78;20979;-54
2021/09/02 14:52:03;;;;;;;7.75;2.50;;;;;;;15.08;50.09;100093.17;1826730;78;21130;-53
2021/09/02 14:54:31;;;;;;;10.13;3.17;;;;;;;14.71;51.81;100089.50;1826503;78;20908;-54
2021/09/02 14:56:57;;;;;;;3.55;2.50;;;;;;;14.52;54.05;100090.22;1826521;78;21006;-54
2021/09/02 14:59:24;;;;;;;11.05;2.33;;;;;;;14.34;53.41;100091.37;1826732;78;20994;-54
2021/09/02 15:01:50;;;;;;;5.42;2.20;;;;;;;14.35;54.05;100088.30;1826803;78;20947;-53
2021/09/02 15:04:16;;;;;;;13.00;2.77;;;;;;;14.31;54.24;100081.09;1826569;78;21675;-55
2021/09/02 15:06:43;;;;;;;4.67;2.20;;;;;;;14.20;55.34;100085.86;1826547;78;21011;-54
2021/09/02 15:09:12;;;;;;;10.23;3.17;;;;;;;14.06;55.41;100071.64;1826604;78;21481;-54
2021/09/02 15:11:40;;;;;;;6.42;2.50;;;;;;;13.95;55.37;100093.31;1826645;78;20885;-53
2021/09/02 15:14:06;;;;;;;5.92;2.40;;;;;;;13.86;56.43;100089.30;1806124;78;20959;-53
2021/09/02 15:16:35;;;;;;;4.55;1.95;;;;;;;13.82;56.31;100094.23;1833328;78;21020;-55